createdAt,value
2023-02-09T00:00:02.675Z,0.13
2023-02-09T00:02:41.527Z,0.13
2023-02-09T00:05:10.275Z,0.26
2023-02-09T00:07:37.431Z,0.24
2023-02-09T00:10:05.727Z,0.02
2023-02-09T00:12:51.283Z,-0.08
2023-02-09T00:15:18.473Z,-0.15
2023-02-09T00:17:45.565Z,-0.30
2023-02-09T00:20:12.818Z,-0.06
2023-02-09T00:22:39.917Z,0.10
2023-02-09T00:25:07.627Z,0.25
2023-02-09T00:27:35.887Z,0.09
2023-02-09T00:30:04.697Z,0.41
2023-02-09T00:32:33.230Z,0.24
2023-02-09T00:35:00.453Z,0.25
2023-02-09T00:37:30.848Z,0.29
2023-02-09T00:39:57.992Z,0.43
2023-02-09T00:42:25.100Z,0.48
2023-02-09T00:44:52.222Z,0.55
2023-02-09T00:47:19.308Z,0.45
2023-02-09T00:49:46.508Z,0.50
2023-02-09T00:52:13.667Z,0.59
2023-02-09T00:54:40.893Z,0.58
2023-02-09T00:57:08.022Z,0.42
2023-02-09T00:59:35.983Z,0.31
2023-02-09T01:02:03.698Z,0.57
2023-02-09T01:04:30.920Z,0.60
2023-02-09T01:06:58.230Z,0.43
2023-02-09T01:09:25.806Z,0.30
2023-02-09T01:11:52.948Z,0.33
2023-02-09T01:14:20.133Z,0.10
2023-02-09T01:16:47.236Z,0.05
2023-02-09T01:19:14.465Z,0.09
2023-02-09T01:21:42.088Z,0.21
2023-02-09T01:24:14.043Z,0.18
2023-02-09T01:26:42.150Z,0.22
2023-02-09T01:29:13.533Z,0.43
2023-02-09T01:31:40.757Z,0.65
2023-02-09T01:34:08.066Z,0.56
2023-02-09T01:36:35.165Z,0.52
2023-02-09T01:39:03.349Z,0.10
2023-02-09T01:41:31.590Z,0.14
2023-02-09T01:44:00.614Z,0.20
2023-02-09T01:46:30.535Z,0.54
2023-02-09T01:49:22.681Z,0.86
2023-02-09T01:51:59.858Z,0.68
2023-02-09T01:54:36.419Z,0.29
2023-02-09T01:57:11.147Z,0.42
2023-02-09T01:59:41.674Z,0.34
2023-02-09T02:02:09.697Z,0.33
2023-02-09T02:04:38.300Z,0.45
2023-02-09T02:07:53.270Z,0.34
2023-02-09T02:10:20.429Z,0.39
2023-02-09T02:12:47.803Z,0.33
2023-02-09T02:15:15.038Z,0.18
2023-02-09T02:18:00.193Z,0.22
2023-02-09T02:20:44.788Z,0.25
2023-02-09T02:23:39.820Z,0.61
2023-02-09T02:26:10.069Z,0.77
2023-02-09T02:28:49.399Z,0.84
2023-02-09T02:31:47.211Z,0.74
2023-02-09T02:34:35.678Z,0.68
2023-02-09T02:37:08.757Z,0.71
2023-02-09T02:39:49.808Z,0.59
2023-02-09T02:42:35.300Z,0.42
2023-02-09T02:45:45.912Z,0.40
2023-02-09T02:48:34.657Z,0.52
2023-02-09T02:51:30.478Z,0.81
2023-02-09T02:54:02.390Z,1.09
2023-02-09T02:56:46.136Z,1.22
2023-02-09T02:59:19.832Z,1.20
2023-02-09T03:01:55.778Z,1.29
2023-02-09T03:04:23.877Z,1.33
2023-02-09T03:06:51.152Z,0.74
2023-02-09T03:09:18.955Z,0.86
2023-02-09T03:11:49.848Z,0.98
2023-02-09T03:14:25.812Z,0.96
2023-02-09T03:17:09.675Z,0.97
2023-02-09T03:19:47.716Z,1.20
2023-02-09T03:22:32.930Z,1.36
2023-02-09T03:25:10.049Z,1.20
2023-02-09T03:27:43.566Z,1.27
2023-02-09T03:30:13.698Z,0.95
2023-02-09T03:32:45.124Z,1.09
2023-02-09T03:35:16.628Z,1.26
2023-02-09T03:37:44.289Z,0.98
2023-02-09T03:40:11.585Z,0.85
2023-02-09T03:42:39.800Z,0.99
2023-02-09T03:45:08.192Z,1.10
2023-02-09T03:47:35.266Z,0.94
2023-02-09T03:50:02.470Z,1.19
2023-02-09T03:52:31.704Z,1.24
2023-02-09T03:54:58.817Z,1.35
2023-02-09T03:57:25.919Z,1.38
2023-02-09T03:59:53.027Z,1.01
2023-02-09T04:02:20.267Z,0.90
2023-02-09T04:04:47.442Z,1.21
2023-02-09T04:07:14.852Z,1.43
2023-02-09T04:09:41.919Z,1.39
2023-02-09T04:12:09.020Z,1.50
2023-02-09T04:14:36.118Z,1.62
2023-02-09T04:17:03.284Z,1.50
2023-02-09T04:19:30.316Z,1.64
2023-02-09T04:21:57.361Z,1.70
2023-02-09T04:24:28.410Z,1.73
2023-02-09T04:26:55.593Z,1.74
2023-02-09T04:29:22.711Z,1.79
2023-02-09T04:31:49.854Z,1.75
2023-02-09T04:34:16.973Z,1.70
2023-02-09T04:36:44.505Z,1.61
2023-02-09T04:39:11.573Z,1.64
2023-02-09T04:41:38.632Z,1.55
2023-02-09T04:44:05.770Z,1.50
2023-02-09T04:46:32.820Z,1.41
2023-02-09T04:48:59.978Z,1.15
2023-02-09T04:51:27.038Z,1.07
2023-02-09T04:53:54.091Z,1.31
2023-02-09T04:56:21.142Z,1.33
2023-02-09T04:59:06.578Z,1.31
2023-02-09T05:01:33.669Z,1.28
2023-02-09T05:04:00.814Z,1.25
2023-02-09T05:06:27.882Z,1.08
2023-02-09T05:08:54.937Z,1.16
2023-02-09T05:11:23.375Z,1.11
2023-02-09T05:13:51.930Z,1.26
2023-02-09T05:16:19.154Z,1.43
2023-02-09T05:18:46.353Z,1.65
2023-02-09T05:21:14.549Z,1.74
2023-02-09T05:23:41.902Z,1.82
2023-02-09T05:26:09.483Z,1.86
2023-02-09T05:28:36.714Z,1.86
2023-02-09T05:31:03.913Z,1.89
2023-02-09T05:33:31.094Z,1.97
2023-02-09T05:35:58.166Z,1.97
2023-02-09T05:38:25.306Z,1.92
2023-02-09T05:40:52.463Z,1.82
2023-02-09T05:43:19.587Z,1.81
2023-02-09T05:45:46.802Z,1.81
2023-02-09T05:48:14.045Z,1.61
2023-02-09T05:50:41.117Z,1.65
2023-02-09T05:53:08.934Z,1.83
2023-02-09T05:55:36.147Z,1.82
2023-02-09T05:58:03.426Z,1.71
2023-02-09T06:00:31.070Z,1.82
2023-02-09T06:02:58.856Z,1.73
2023-02-09T06:05:26.660Z,1.46
2023-02-09T06:07:53.869Z,1.52
2023-02-09T06:10:21.154Z,1.59
2023-02-09T06:12:48.319Z,1.72
2023-02-09T06:15:16.566Z,1.73
2023-02-09T06:17:43.840Z,1.78
2023-02-09T06:20:11.882Z,1.94
2023-02-09T06:22:38.980Z,2.04
2023-02-09T06:25:06.425Z,1.85
2023-02-09T06:27:33.455Z,1.71
2023-02-09T06:30:00.510Z,1.60
2023-02-09T06:32:27.847Z,1.70
2023-02-09T06:34:54.915Z,1.63
2023-02-09T06:37:22.119Z,1.78
2023-02-09T06:39:49.205Z,1.70
2023-02-09T06:42:16.252Z,1.44
2023-02-09T06:44:43.321Z,1.15
2023-02-09T06:47:10.444Z,1.21
2023-02-09T06:49:37.547Z,1.26
2023-02-09T06:52:05.448Z,1.24
2023-02-09T06:54:32.545Z,1.34
2023-02-09T06:56:59.904Z,1.52
2023-02-09T06:59:26.962Z,1.54
2023-02-09T07:01:55.133Z,1.19
2023-02-09T07:04:22.763Z,1.32
2023-02-09T07:06:49.866Z,1.41
2023-02-09T07:09:16.945Z,1.48
2023-02-09T07:11:44.143Z,1.61
2023-02-09T07:14:11.214Z,1.71
2023-02-09T07:16:38.295Z,1.68
2023-02-09T07:19:05.340Z,1.91
2023-02-09T07:21:32.402Z,2.00
2023-02-09T07:23:59.569Z,1.83
2023-02-09T07:26:26.728Z,1.76
2023-02-09T07:28:53.858Z,1.56
2023-02-09T07:31:21.064Z,1.54
2023-02-09T07:33:48.228Z,1.60
2023-02-09T07:36:16.752Z,1.79
2023-02-09T07:38:44.492Z,1.97
2023-02-09T07:41:20.948Z,1.74
2023-02-09T07:43:48.134Z,1.64
2023-02-09T07:46:17.419Z,1.63
2023-02-09T07:48:45.046Z,1.63
2023-02-09T07:51:16.663Z,1.49
2023-02-09T07:53:43.949Z,1.60
2023-02-09T07:56:11.252Z,1.88
2023-02-09T07:58:38.655Z,2.13
2023-02-09T08:01:07.925Z,2.17
2023-02-09T08:03:36.465Z,2.11
2023-02-09T08:06:24.282Z,2.10
2023-02-09T08:08:53.728Z,2.15
2023-02-09T08:11:29.418Z,2.18
2023-02-09T08:13:58.936Z,2.13
2023-02-09T08:16:29.661Z,1.86
2023-02-09T08:19:00.389Z,1.72
2023-02-09T08:21:31.274Z,1.75
2023-02-09T08:23:59.551Z,1.91
2023-02-09T08:26:26.616Z,2.02
2023-02-09T08:28:54.531Z,2.11
2023-02-09T08:31:24.422Z,2.30
2023-02-09T08:33:52.430Z,2.15
2023-02-09T08:36:21.205Z,1.92
2023-02-09T08:38:48.473Z,1.91
2023-02-09T08:41:16.759Z,2.03
2023-02-09T08:43:48.918Z,2.14
2023-02-09T08:46:16.810Z,2.23
2023-02-09T08:48:46.705Z,2.25
2023-02-09T08:51:16.107Z,2.61
2023-02-09T08:53:44.185Z,2.39
2023-02-09T08:56:11.250Z,2.53
2023-02-09T08:58:38.336Z,2.81
2023-02-09T09:01:05.772Z,2.71
2023-02-09T09:03:33.051Z,2.65
2023-02-09T09:06:11.510Z,2.62
2023-02-09T09:08:39.810Z,2.67
2023-02-09T09:11:13.007Z,2.67
2023-02-09T09:13:41.555Z,2.54
2023-02-09T09:16:15.619Z,2.74
2023-02-09T09:18:44.448Z,2.76
2023-02-09T09:21:16.294Z,2.92
2023-02-09T09:23:44.650Z,2.91
2023-02-09T09:26:12.144Z,2.86
2023-02-09T09:28:39.306Z,2.92
2023-02-09T09:31:15.524Z,2.71
2023-02-09T09:33:42.927Z,2.46
2023-02-09T09:36:11.649Z,2.35
2023-02-09T09:38:39.709Z,2.13
2023-02-09T09:41:32.134Z,2.24
2023-02-09T09:44:01.316Z,2.50
2023-02-09T09:46:42.069Z,2.46
2023-02-09T09:49:21.423Z,2.76
2023-02-09T09:51:54.256Z,2.57
2023-02-09T09:54:26.784Z,2.49
2023-02-09T09:56:54.718Z,2.60
2023-02-09T09:59:25.593Z,2.89
2023-02-09T10:01:55.470Z,3.14
2023-02-09T10:04:22.873Z,3.17
2023-02-09T10:07:17.443Z,3.18
2023-02-09T10:09:52.184Z,2.94
2023-02-09T10:12:38.245Z,2.63
2023-02-09T10:15:29.332Z,2.57
2023-02-09T10:17:57.122Z,2.52
2023-02-09T10:20:43.886Z,2.48
2023-02-09T10:23:36.537Z,2.80
2023-02-09T10:26:20.724Z,2.88
2023-02-09T10:28:51.043Z,2.89
2023-02-09T10:31:32.338Z,3.14
2023-02-09T10:34:05.074Z,3.08
2023-02-09T10:36:35.815Z,3.06
2023-02-09T10:39:12.060Z,2.88
2023-02-09T10:41:42.165Z,2.67
2023-02-09T10:44:28.611Z,2.59
2023-02-09T10:47:21.408Z,2.44
2023-02-09T10:49:54.597Z,2.57
2023-02-09T10:52:26.539Z,2.71
2023-02-09T10:54:57.047Z,2.94
2023-02-09T10:57:30.886Z,3.04
2023-02-09T11:00:00.662Z,2.98
2023-02-09T11:02:48.782Z,2.94
2023-02-09T11:05:21.547Z,2.72
2023-02-09T11:08:12.992Z,2.82
2023-02-09T11:10:49.551Z,2.79
2023-02-09T11:13:23.635Z,2.88
2023-02-09T11:16:20.703Z,2.55
2023-02-09T11:19:13.803Z,2.64
2023-02-09T11:21:49.827Z,3.04
2023-02-09T11:24:17.362Z,3.19
2023-02-09T11:26:58.502Z,3.22
2023-02-09T11:29:41.201Z,3.13
2023-02-09T11:32:20.017Z,3.03
2023-02-09T11:35:02.061Z,3.14
2023-02-09T11:38:01.776Z,3.00
2023-02-09T11:40:50.328Z,2.87
2023-02-09T11:43:37.976Z,2.35
2023-02-09T11:46:15.922Z,2.32
2023-02-09T11:48:54.965Z,2.35
2023-02-09T11:51:25.310Z,2.54
2023-02-09T11:54:18.390Z,2.92
2023-02-09T11:56:50.435Z,2.98
2023-02-09T11:59:29.550Z,3.13
2023-02-09T12:02:03.912Z,2.97
2023-02-09T12:05:01.609Z,3.02
2023-02-09T12:07:34.730Z,2.98
2023-02-09T12:10:28.167Z,3.20
2023-02-09T12:13:06.954Z,3.23
2023-02-09T12:16:00.143Z,3.24
2023-02-09T12:18:30.949Z,3.32
2023-02-09T12:21:04.487Z,3.37
2023-02-09T12:23:36.863Z,3.50
2023-02-09T12:26:13.009Z,3.55
2023-02-09T12:28:45.978Z,3.52
2023-02-09T12:31:18.443Z,3.50
2023-02-09T12:33:45.530Z,3.45
2023-02-09T12:36:18.274Z,3.40
2023-02-09T12:38:56.474Z,3.40
2023-02-09T12:41:30.706Z,3.37
2023-02-09T12:44:09.686Z,3.28
2023-02-09T12:46:46.740Z,3.28
2023-02-09T12:49:20.897Z,3.20
2023-02-09T12:51:50.726Z,3.02
2023-02-09T12:54:45.657Z,2.70
2023-02-09T12:57:15.470Z,2.69
2023-02-09T12:59:51.905Z,2.66
2023-02-09T13:02:38.348Z,2.85
2023-02-09T13:05:11.808Z,3.00
2023-02-09T13:07:42.669Z,2.82
2023-02-09T13:10:26.931Z,2.79
2023-02-09T13:13:17.168Z,2.76
2023-02-09T13:16:05.004Z,2.71
2023-02-09T13:18:57.284Z,2.35
2023-02-09T13:21:45.514Z,2.50
2023-02-09T13:24:19.739Z,2.62
2023-02-09T13:26:58.452Z,2.71
2023-02-09T13:29:26.555Z,2.56
2023-02-09T13:32:12.000Z,2.46
2023-02-09T13:35:04.597Z,2.67
2023-02-09T13:37:50.243Z,2.80
2023-02-09T13:40:22.970Z,2.69
2023-02-09T13:43:02.313Z,2.61
2023-02-09T13:45:32.345Z,2.53
2023-02-09T13:48:00.723Z,2.33
2023-02-09T13:50:29.460Z,2.20
2023-02-09T13:53:10.256Z,2.31
2023-02-09T13:55:43.039Z,2.45
2023-02-09T13:58:18.758Z,2.50
2023-02-09T14:00:51.514Z,2.74
2023-02-09T14:03:25.003Z,2.76
2023-02-09T14:06:03.170Z,2.92
2023-02-09T14:08:33.392Z,2.90
2023-02-09T14:11:41.838Z,2.97
2023-02-09T14:14:26.952Z,2.83
2023-02-09T14:17:26.217Z,2.84
2023-02-09T14:19:55.034Z,2.53
2023-02-09T14:22:39.599Z,2.47
2023-02-09T14:25:22.892Z,2.56
2023-02-09T14:27:50.211Z,2.48
2023-02-09T14:30:24.564Z,2.72
2023-02-09T14:32:54.575Z,2.65
2023-02-09T14:35:29.140Z,2.39
2023-02-09T14:38:05.365Z,2.15
2023-02-09T14:40:34.760Z,1.96
2023-02-09T14:43:22.439Z,2.22
2023-02-09T14:45:59.633Z,2.50
2023-02-09T14:48:28.716Z,2.75
2023-02-09T14:50:59.091Z,2.63
2023-02-09T14:53:30.049Z,2.52
2023-02-09T14:55:58.232Z,2.76
2023-02-09T14:58:28.169Z,2.94
2023-02-09T15:00:58.343Z,3.05
2023-02-09T15:03:26.277Z,3.05
2023-02-09T15:05:59.660Z,3.09
2023-02-09T15:08:29.838Z,3.08
2023-02-09T15:11:00.274Z,2.92
2023-02-09T15:13:31.391Z,2.96
2023-02-09T15:15:58.495Z,2.65
2023-02-09T15:18:27.427Z,2.48
2023-02-09T15:20:54.696Z,2.62
2023-02-09T15:23:21.774Z,2.75
2023-02-09T15:25:49.102Z,2.81
2023-02-09T15:28:28.453Z,2.86
2023-02-09T15:30:57.107Z,2.62
2023-02-09T15:33:28.695Z,2.62
2023-02-09T15:35:58.955Z,2.76
2023-02-09T15:38:27.870Z,2.84
2023-02-09T15:41:14.301Z,2.90
2023-02-09T15:43:59.697Z,2.90
2023-02-09T15:46:45.731Z,2.93
2023-02-09T15:49:12.898Z,2.85
2023-02-09T15:51:41.235Z,2.75
2023-02-09T15:54:31.969Z,2.94
2023-02-09T15:57:01.032Z,2.72
2023-02-09T15:59:28.149Z,2.55
2023-02-09T16:01:55.744Z,2.67
2023-02-09T16:04:24.236Z,2.73
2023-02-09T16:06:54.156Z,2.85
2023-02-09T16:09:26.970Z,2.80
2023-02-09T16:11:54.212Z,2.84
2023-02-09T16:14:23.965Z,2.95
2023-02-09T16:16:51.728Z,3.09
2023-02-09T16:19:19.867Z,2.98
2023-02-09T16:21:50.769Z,2.92
2023-02-09T16:24:33.250Z,2.98
2023-02-09T16:27:02.541Z,2.98
2023-02-09T16:29:29.644Z,3.00
2023-02-09T16:31:56.795Z,2.84
2023-02-09T16:34:23.933Z,2.47
2023-02-09T16:36:51.132Z,2.67
2023-02-09T16:39:20.265Z,2.77
2023-02-09T16:41:49.806Z,2.82
2023-02-09T16:44:19.058Z,2.69
2023-02-09T16:46:48.768Z,2.66
2023-02-09T16:49:30.906Z,2.66
2023-02-09T16:52:02.215Z,2.62
2023-02-09T16:54:33.282Z,2.69
2023-02-09T16:57:01.057Z,2.44
2023-02-09T16:59:28.226Z,2.50
2023-02-09T17:01:55.461Z,2.25
2023-02-09T17:04:22.550Z,2.24
2023-02-09T17:06:52.933Z,2.32
2023-02-09T17:09:20.039Z,2.33
2023-02-09T17:11:47.181Z,2.36
2023-02-09T17:14:14.504Z,2.36
2023-02-09T17:16:46.294Z,2.36
2023-02-09T17:19:16.231Z,2.47
2023-02-09T17:21:43.344Z,2.44
2023-02-09T17:24:16.210Z,2.22
2023-02-09T17:26:44.089Z,2.45
2023-02-09T17:29:11.564Z,2.60
2023-02-09T17:31:52.842Z,2.60
2023-02-09T17:34:27.176Z,2.62
2023-02-09T17:36:58.403Z,2.76
2023-02-09T17:39:25.478Z,2.72
2023-02-09T17:41:52.909Z,2.65
2023-02-09T17:44:35.366Z,2.70
2023-02-09T17:47:16.851Z,2.40
2023-02-09T17:49:44.452Z,2.30
2023-02-09T17:52:21.191Z,2.33
2023-02-09T17:54:49.535Z,2.47
2023-02-09T17:57:17.500Z,2.59
2023-02-09T17:59:44.729Z,2.65
2023-02-09T18:02:18.273Z,2.58
2023-02-09T18:04:45.485Z,2.42
2023-02-09T18:07:14.575Z,2.21
2023-02-09T18:09:41.669Z,1.91
2023-02-09T18:12:18.673Z,1.99
2023-02-09T18:14:45.784Z,2.09
2023-02-09T18:17:12.963Z,2.09
2023-02-09T18:19:40.058Z,2.04
2023-02-09T18:22:07.256Z,1.81
2023-02-09T18:24:35.447Z,1.69
2023-02-09T18:27:02.577Z,1.74
2023-02-09T18:29:30.763Z,1.75
2023-02-09T18:31:59.694Z,1.79
2023-02-09T18:34:27.542Z,1.74
2023-02-09T18:36:55.056Z,1.77
2023-02-09T18:39:22.182Z,1.75
2023-02-09T18:41:54.852Z,1.52
2023-02-09T18:44:29.054Z,1.44
2023-02-09T18:46:57.549Z,1.86
2023-02-09T18:49:24.980Z,1.95
2023-02-09T18:51:52.423Z,1.90
2023-02-09T18:54:19.637Z,1.76
2023-02-09T18:56:46.675Z,1.88
2023-02-09T18:59:13.853Z,1.96
2023-02-09T19:01:41.175Z,2.02
2023-02-09T19:04:08.447Z,1.72
2023-02-09T19:06:35.812Z,1.43
2023-02-09T19:09:03.127Z,1.55
2023-02-09T19:11:30.339Z,1.40
2023-02-09T19:14:15.910Z,1.35
2023-02-09T19:16:43.142Z,1.61
2023-02-09T19:19:12.491Z,1.66
2023-02-09T19:21:39.627Z,1.73
2023-02-09T19:24:06.899Z,1.92
2023-02-09T19:26:34.275Z,1.88
2023-02-09T19:29:01.401Z,2.06
2023-02-09T19:31:28.612Z,2.12
2023-02-09T19:33:58.852Z,2.13
2023-02-09T19:36:28.086Z,1.90
2023-02-09T19:38:56.599Z,2.05
2023-02-09T19:41:25.667Z,1.91
2023-02-09T19:43:57.487Z,1.10
2023-02-09T19:46:25.747Z,1.03
2023-02-09T19:48:55.849Z,0.97
2023-02-09T19:51:23.337Z,1.42
2023-02-09T19:53:50.814Z,1.50
2023-02-09T19:56:20.898Z,1.50
2023-02-09T19:58:48.093Z,1.32
2023-02-09T20:01:15.583Z,1.21
2023-02-09T20:03:42.874Z,1.10
2023-02-09T20:06:13.492Z,0.98
2023-02-09T20:08:41.108Z,0.95
2023-02-09T20:11:15.426Z,1.28
2023-02-09T20:13:42.469Z,1.19
2023-02-09T20:16:17.205Z,1.20
2023-02-09T20:18:46.786Z,1.39
2023-02-09T20:21:14.024Z,1.20
2023-02-09T20:23:41.428Z,1.27
2023-02-09T20:26:14.069Z,0.94
2023-02-09T20:28:41.164Z,0.87
2023-02-09T20:31:09.604Z,0.83
2023-02-09T20:33:39.280Z,1.09
2023-02-09T20:36:08.567Z,1.31
2023-02-09T20:38:37.472Z,1.23
2023-02-09T20:41:09.485Z,1.29
2023-02-09T20:43:56.280Z,1.43
2023-02-09T20:46:43.733Z,1.31
2023-02-09T20:49:12.968Z,1.42
2023-02-09T20:51:40.757Z,1.34
2023-02-09T20:54:07.909Z,1.18
2023-02-09T20:56:35.252Z,1.07
2023-02-09T20:59:02.600Z,1.21
2023-02-09T21:01:29.729Z,1.46
2023-02-09T21:03:58.917Z,1.36
2023-02-09T21:06:27.265Z,1.44
2023-02-09T21:08:54.590Z,1.66
2023-02-09T21:11:21.658Z,1.38
2023-02-09T21:13:49.059Z,1.11
2023-02-09T21:16:16.324Z,0.92
2023-02-09T21:18:45.869Z,0.79
2023-02-09T21:21:15.964Z,1.02
2023-02-09T21:23:44.969Z,0.91
2023-02-09T21:26:15.402Z,0.92
2023-02-09T21:28:45.522Z,0.80
2023-02-09T21:31:18.018Z,1.08
2023-02-09T21:33:45.133Z,1.22
2023-02-09T21:36:12.638Z,1.39
2023-02-09T21:38:42.862Z,1.47
2023-02-09T21:41:32.414Z,1.39
2023-02-09T21:44:00.006Z,1.31
2023-02-09T21:46:27.744Z,1.46
2023-02-09T21:48:55.498Z,1.36
2023-02-09T21:51:23.520Z,1.42
2023-02-09T21:54:14.771Z,1.69
2023-02-09T21:56:42.286Z,1.91
2023-02-09T21:59:09.795Z,1.91
2023-02-09T22:01:37.069Z,1.90
2023-02-09T22:04:05.003Z,1.73
2023-02-09T22:06:32.416Z,1.76
2023-02-09T22:09:02.695Z,1.84
2023-02-09T22:11:30.263Z,1.56
2023-02-09T22:13:57.341Z,1.62
2023-02-09T22:16:25.451Z,1.64
2023-02-09T22:18:52.846Z,1.68
2023-02-09T22:21:19.964Z,1.66
2023-02-09T22:23:47.234Z,1.68
2023-02-09T22:26:14.816Z,1.53
2023-02-09T22:28:42.913Z,1.48
2023-02-09T22:31:20.936Z,1.47
2023-02-09T22:33:48.520Z,1.46
2023-02-09T22:36:18.485Z,1.54
2023-02-09T22:38:46.782Z,1.76
2023-02-09T22:41:22.113Z,1.42
2023-02-09T22:44:19.561Z,1.32
2023-02-09T22:46:46.728Z,1.58
2023-02-09T22:49:17.641Z,1.59
2023-02-09T22:51:46.414Z,1.28
2023-02-09T22:54:15.402Z,1.42
2023-02-09T22:56:42.715Z,1.40
2023-02-09T22:59:12.165Z,1.43
2023-02-09T23:01:39.344Z,1.16
2023-02-09T23:04:06.540Z,1.30
2023-02-09T23:06:33.617Z,1.37
2023-02-09T23:09:03.989Z,1.43
2023-02-09T23:11:32.035Z,1.45
2023-02-09T23:14:14.757Z,1.35
2023-02-09T23:16:43.754Z,1.47
2023-02-09T23:19:16.729Z,1.50
2023-02-09T23:21:46.441Z,1.63
2023-02-09T23:24:15.918Z,1.12
2023-02-09T23:26:43.218Z,1.23
2023-02-09T23:29:13.257Z,1.30
2023-02-09T23:31:40.630Z,1.16
2023-02-09T23:34:08.025Z,1.27
2023-02-09T23:36:35.463Z,1.10
2023-02-09T23:39:06.414Z,1.05
2023-02-09T23:41:33.758Z,0.86
2023-02-09T23:44:01.932Z,1.03
2023-02-09T23:46:29.529Z,0.95
2023-02-09T23:48:57.102Z,0.67
2023-02-09T23:51:28.649Z,0.80
2023-02-09T23:53:58.267Z,0.92
2023-02-09T23:56:26.198Z,1.12
2023-02-09T23:58:54.569Z,1.09
